createdAt,value
2022-12-28T00:01:35.724Z,0.97
2022-12-28T00:04:31.463Z,1.03
2022-12-28T00:07:01.217Z,1.20
2022-12-28T00:09:30.410Z,1.50
2022-12-28T00:11:58.857Z,1.47
2022-12-28T00:14:27.772Z,1.53
2022-12-28T00:16:56.393Z,1.30
2022-12-28T00:19:25.178Z,1.30
2022-12-28T00:21:56.148Z,1.17
2022-12-28T00:24:27.357Z,0.90
2022-12-28T00:26:57.101Z,1.43
2022-12-28T00:29:26.046Z,1.30
2022-12-28T00:31:54.562Z,1.90
2022-12-28T00:34:23.387Z,1.60
2022-12-28T00:37:10.049Z,1.37
2022-12-28T00:39:43.301Z,1.50
2022-12-28T00:42:12.386Z,1.70
2022-12-28T00:44:41.419Z,2.20
2022-12-28T00:47:09.835Z,1.80
2022-12-28T00:49:38.591Z,2.37
2022-12-28T00:52:07.132Z,2.70
2022-12-28T00:54:38.578Z,2.30
2022-12-28T00:57:09.172Z,3.00
2022-12-28T00:59:38.239Z,2.07
2022-12-28T01:02:06.905Z,1.97
2022-12-28T01:04:35.474Z,2.07
2022-12-28T01:07:03.794Z,1.90
2022-12-28T01:09:35.165Z,2.40
2022-12-28T01:12:03.542Z,2.00
2022-12-28T01:14:33.883Z,2.50
2022-12-28T01:17:03.289Z,2.10
2022-12-28T01:19:33.236Z,1.90
2022-12-28T01:22:01.896Z,2.10
2022-12-28T01:24:30.255Z,1.93
2022-12-28T01:26:59.699Z,1.67
2022-12-28T01:29:28.422Z,2.20
2022-12-28T01:31:58.349Z,0.90
2022-12-28T01:34:27.082Z,1.20
2022-12-28T01:36:55.506Z,1.00
2022-12-28T01:39:24.132Z,1.57
2022-12-28T01:41:53.417Z,1.47
2022-12-28T01:44:47.079Z,1.20
2022-12-28T01:47:24.680Z,1.30
2022-12-28T01:49:58.800Z,1.00
2022-12-28T01:52:31.515Z,0.80
2022-12-28T01:55:03.069Z,1.13
2022-12-28T01:57:33.492Z,1.83
2022-12-28T02:00:04.669Z,1.30
2022-12-28T02:02:34.863Z,1.30
2022-12-28T02:05:04.103Z,1.97
2022-12-28T02:07:39.101Z,2.30
2022-12-28T02:10:40.761Z,1.70
2022-12-28T02:12:58.656Z,1.30
2022-12-28T02:15:27.344Z,1.80
2022-12-28T02:17:57.892Z,3.13
2022-12-28T02:20:31.894Z,3.30
2022-12-28T02:23:25.045Z,3.23
2022-12-28T02:26:27.099Z,2.50
2022-12-28T02:29:46.260Z,2.60
2022-12-28T02:32:26.811Z,2.27
2022-12-28T02:35:00.369Z,3.57
2022-12-28T02:37:33.581Z,3.07
2022-12-28T02:40:05.055Z,3.10
2022-12-28T02:42:34.354Z,2.80
2022-12-28T02:45:20.447Z,2.17
2022-12-28T02:48:16.348Z,2.10
2022-12-28T02:50:51.132Z,1.90
2022-12-28T02:53:31.408Z,1.93
2022-12-28T02:56:10.489Z,2.47
2022-12-28T02:59:16.397Z,2.90
2022-12-28T03:02:09.321Z,3.10
2022-12-28T03:05:01.087Z,4.67
2022-12-28T03:08:03.911Z,2.60
2022-12-28T03:10:36.485Z,4.77
2022-12-28T03:13:30.565Z,3.00
2022-12-28T03:16:01.128Z,2.83
2022-12-28T03:18:49.056Z,2.60
2022-12-28T03:21:36.519Z,2.23
2022-12-28T03:27:53.790Z,2.43
2022-12-28T03:30:44.471Z,1.57
2022-12-28T03:33:13.656Z,1.53
2022-12-28T03:35:47.742Z,1.73
2022-12-28T03:38:27.735Z,1.50
2022-12-28T03:41:02.817Z,1.20
2022-12-28T03:43:42.792Z,1.50
2022-12-28T03:46:17.330Z,1.73
2022-12-28T03:48:46.831Z,1.57
2022-12-28T03:51:16.521Z,0.93
2022-12-28T03:53:48.260Z,1.23
2022-12-28T03:56:18.755Z,1.13
2022-12-28T03:58:48.048Z,1.00
2022-12-28T04:01:16.967Z,1.60
2022-12-28T04:03:45.731Z,1.43
2022-12-28T04:06:16.774Z,1.13
2022-12-28T04:08:47.448Z,1.00
2022-12-28T04:11:16.496Z,1.10
2022-12-28T04:13:45.417Z,1.00
2022-12-28T04:16:15.539Z,1.10
2022-12-28T04:18:44.853Z,1.13
2022-12-28T04:21:14.893Z,1.10
2022-12-28T04:23:44.857Z,0.93
2022-12-28T04:26:16.920Z,1.27
2022-12-28T04:28:45.880Z,1.43
2022-12-28T04:31:15.921Z,1.77
2022-12-28T04:33:44.465Z,0.80
2022-12-28T04:36:16.208Z,1.10
2022-12-28T04:38:44.977Z,1.03
2022-12-28T04:41:15.585Z,2.20
2022-12-28T04:43:44.398Z,1.17
2022-12-28T04:46:14.922Z,1.13
2022-12-28T04:48:44.151Z,0.80
2022-12-28T04:51:18.093Z,1.27
2022-12-28T04:53:47.121Z,1.47
2022-12-28T04:56:21.379Z,0.93
2022-12-28T04:58:50.456Z,1.53
2022-12-28T05:01:49.264Z,0.83
2022-12-28T05:04:17.824Z,1.20
2022-12-28T05:06:46.219Z,1.10
2022-12-28T05:09:31.897Z,1.60
2022-12-28T05:12:01.902Z,1.40
2022-12-28T05:14:36.673Z,1.57
2022-12-28T05:17:06.257Z,1.43
2022-12-28T05:19:42.908Z,1.60
2022-12-28T05:22:13.074Z,2.63
2022-12-28T05:24:42.078Z,2.37
2022-12-28T05:27:12.937Z,1.97
2022-12-28T05:29:41.865Z,1.90
2022-12-28T05:32:10.551Z,1.70
2022-12-28T05:34:39.045Z,1.73
2022-12-28T05:37:09.992Z,1.33
2022-12-28T05:39:38.394Z,2.27
2022-12-28T05:42:06.908Z,2.77
2022-12-28T05:44:36.946Z,1.80
2022-12-28T05:47:05.625Z,1.77
2022-12-28T05:49:34.121Z,2.07
2022-12-28T05:52:03.086Z,1.27
2022-12-28T05:55:00.753Z,1.80
2022-12-28T05:57:29.366Z,1.93
2022-12-28T05:59:59.244Z,2.00
2022-12-28T06:02:28.130Z,3.20
2022-12-28T06:04:59.241Z,4.20
2022-12-28T06:07:27.808Z,4.43
2022-12-28T06:09:56.277Z,4.07
2022-12-28T06:12:25.619Z,3.53
2022-12-28T06:14:54.806Z,2.07
2022-12-28T06:20:13.473Z,2.53
2022-12-28T06:22:42.413Z,2.47
2022-12-28T06:25:11.626Z,3.70
2022-12-28T06:27:40.387Z,3.30
2022-12-28T06:30:10.481Z,3.20
2022-12-28T06:32:49.696Z,4.13
2022-12-28T06:35:21.177Z,4.90
2022-12-28T06:37:50.210Z,4.27
2022-12-28T06:40:33.380Z,4.50
2022-12-28T06:43:09.000Z,3.63
2022-12-28T06:45:38.540Z,3.40
2022-12-28T06:48:09.344Z,4.60
2022-12-28T06:50:40.181Z,2.67
2022-12-28T06:53:09.200Z,2.80
2022-12-28T06:55:37.787Z,4.37
2022-12-28T06:58:06.465Z,3.77
2022-12-28T07:00:46.140Z,5.63
2022-12-28T07:03:21.027Z,3.63
2022-12-28T07:05:49.441Z,3.87
2022-12-28T07:08:18.168Z,3.30
2022-12-28T07:10:47.039Z,3.43
2022-12-28T07:13:15.782Z,5.00
2022-12-28T07:15:44.403Z,4.57
2022-12-28T07:18:15.597Z,5.43
2022-12-28T07:20:45.855Z,3.97
2022-12-28T07:23:14.886Z,4.40
2022-12-28T07:25:43.574Z,4.23
2022-12-28T07:28:12.751Z,3.17
2022-12-28T07:34:53.639Z,2.60
2022-12-28T07:37:23.810Z,2.07
2022-12-28T07:39:52.463Z,2.20
2022-12-28T07:42:21.144Z,2.50
2022-12-28T07:44:49.832Z,3.87
2022-12-28T07:47:18.528Z,2.40
2022-12-28T07:49:48.045Z,3.07
2022-12-28T07:52:16.768Z,3.30
2022-12-28T07:54:46.618Z,3.10
2022-12-28T07:57:15.338Z,2.07
2022-12-28T07:59:45.905Z,1.73
2022-12-28T08:02:14.549Z,1.60
2022-12-28T08:04:46.193Z,2.00
2022-12-28T08:07:17.287Z,2.70
2022-12-28T08:09:47.213Z,2.40
2022-12-28T08:12:15.979Z,3.03
2022-12-28T08:14:44.794Z,3.27
2022-12-28T08:17:17.514Z,3.03
2022-12-28T08:19:50.181Z,3.60
2022-12-28T08:22:19.001Z,3.77
2022-12-28T08:24:48.796Z,3.93
2022-12-28T08:27:18.047Z,2.67
2022-12-28T08:29:47.056Z,3.30
2022-12-28T08:32:15.772Z,9.40
2022-12-28T08:38:59.215Z,7.63
2022-12-28T08:41:30.497Z,3.60
2022-12-28T08:43:59.807Z,2.90
2022-12-28T08:46:32.955Z,2.73
2022-12-28T08:49:02.114Z,3.10
2022-12-28T08:51:33.161Z,3.00
2022-12-28T08:54:02.061Z,2.93
2022-12-28T08:56:33.340Z,2.77
2022-12-28T08:59:02.811Z,2.80
2022-12-28T09:01:38.865Z,4.30
2022-12-28T09:04:14.670Z,5.07
2022-12-28T09:06:43.390Z,3.83
2022-12-28T09:09:14.004Z,4.37
2022-12-28T09:11:46.517Z,4.30
2022-12-28T09:14:23.695Z,4.97
2022-12-28T09:17:18.683Z,5.40
2022-12-28T09:19:47.417Z,6.50
2022-12-28T09:22:16.157Z,4.80
2022-12-28T09:24:44.777Z,4.90
2022-12-28T09:27:15.055Z,5.17
2022-12-28T09:29:44.386Z,4.57
2022-12-28T09:32:13.627Z,4.50
2022-12-28T09:34:42.376Z,4.80
2022-12-28T09:37:11.359Z,3.70
2022-12-28T09:39:40.242Z,4.20
2022-12-28T09:42:16.901Z,5.10
2022-12-28T09:45:03.322Z,5.80
2022-12-28T09:47:39.805Z,4.27
2022-12-28T09:50:30.433Z,4.67
2022-12-28T09:53:17.607Z,4.33
2022-12-28T09:55:54.494Z,4.37
2022-12-28T09:58:24.883Z,4.87
2022-12-28T10:00:55.728Z,7.07
2022-12-28T10:03:46.449Z,9.37
2022-12-28T10:06:17.607Z,12.47
2022-12-28T10:08:51.325Z,12.23
2022-12-28T10:11:22.820Z,11.37
2022-12-28T10:13:58.483Z,10.57
2022-12-28T10:16:29.675Z,14.10
2022-12-28T10:19:00.836Z,14.27
2022-12-28T10:21:33.208Z,14.10
2022-12-28T10:26:51.642Z,10.07
2022-12-28T10:29:23.673Z,12.77
2022-12-28T10:32:01.686Z,8.60
2022-12-28T10:34:33.791Z,8.23
2022-12-28T10:39:58.141Z,7.77
2022-12-28T10:42:29.220Z,7.17
2022-12-28T10:45:06.420Z,6.70
2022-12-28T10:47:37.451Z,5.43
2022-12-28T10:50:36.035Z,7.43
2022-12-28T10:52:59.860Z,8.70
2022-12-28T10:55:30.292Z,10.40
2022-12-28T10:58:29.079Z,8.37
2022-12-28T11:01:06.714Z,6.23
2022-12-28T11:03:20.550Z,6.13
2022-12-28T11:04:08.499Z,6.97
2022-12-28T11:06:47.697Z,7.30
2022-12-28T11:09:18.594Z,7.40
2022-12-28T11:11:51.401Z,6.50
2022-12-28T11:14:27.310Z,7.90
2022-12-28T11:16:59.410Z,7.70
2022-12-28T11:19:32.506Z,7.17
2022-12-28T11:22:00.962Z,6.87
2022-12-28T11:24:36.159Z,7.87
2022-12-28T11:27:18.849Z,7.47
2022-12-28T11:29:49.688Z,6.77
2022-12-28T11:32:23.290Z,6.27
2022-12-28T11:34:51.960Z,7.30
2022-12-28T11:37:20.918Z,6.43
2022-12-28T11:39:51.060Z,5.87
2022-12-28T11:42:52.682Z,8.10
2022-12-28T11:45:52.402Z,6.20
2022-12-28T11:48:48.061Z,6.20
2022-12-28T11:51:18.777Z,6.07
2022-12-28T11:53:53.085Z,4.47
2022-12-28T11:56:21.838Z,4.93
2022-12-28T11:59:31.552Z,4.77
2022-12-28T12:02:01.548Z,5.17
2022-12-28T12:04:37.156Z,5.47
2022-12-28T12:07:16.583Z,5.10
2022-12-28T12:09:46.875Z,4.47
2022-12-28T12:12:49.003Z,4.40
2022-12-28T12:15:20.998Z,4.23
2022-12-28T12:17:53.248Z,3.53
2022-12-28T12:20:46.926Z,2.87
2022-12-28T12:23:23.232Z,3.40
2022-12-28T12:25:54.531Z,3.83
2022-12-28T12:28:34.052Z,4.60
2022-12-28T12:31:04.443Z,3.40
2022-12-28T12:33:36.822Z,4.70
2022-12-28T12:36:22.962Z,3.90
2022-12-28T12:39:18.362Z,4.13
2022-12-28T12:41:54.444Z,2.90
2022-12-28T12:44:34.774Z,3.70
2022-12-28T12:47:26.038Z,2.83
2022-12-28T12:50:21.668Z,2.90
2022-12-28T12:52:57.740Z,2.80
2022-12-28T12:55:39.261Z,2.27
2022-12-28T12:58:15.718Z,2.50
2022-12-28T13:01:00.234Z,3.17
2022-12-28T13:03:39.694Z,2.60
2022-12-28T13:06:08.848Z,4.60
2022-12-28T13:08:42.626Z,2.60
2022-12-28T13:11:11.637Z,3.83
2022-12-28T13:13:44.113Z,3.10
2022-12-28T13:16:16.878Z,3.23
2022-12-28T13:18:57.548Z,3.03
2022-12-28T13:21:29.068Z,3.73
2022-12-28T13:24:06.342Z,3.70
2022-12-28T13:26:35.328Z,5.60
2022-12-28T13:29:09.868Z,4.30
2022-12-28T13:31:40.909Z,4.10
2022-12-28T13:34:19.536Z,4.33
2022-12-28T13:36:56.605Z,4.60
2022-12-28T13:39:27.756Z,6.07
2022-12-28T13:41:58.689Z,6.47
2022-12-28T13:44:40.223Z,6.30
2022-12-28T13:47:19.041Z,6.60
2022-12-28T13:50:02.162Z,4.43
2022-12-28T13:52:34.031Z,5.50
2022-12-28T13:55:07.916Z,5.90
2022-12-28T13:57:46.805Z,5.83
2022-12-28T14:00:18.499Z,5.70
2022-12-28T14:02:47.752Z,6.10
2022-12-28T14:05:22.458Z,4.57
2022-12-28T14:08:16.289Z,5.00
2022-12-28T14:10:47.805Z,6.10
2022-12-28T14:13:17.495Z,6.27
2022-12-28T14:15:48.075Z,5.60
2022-12-28T14:18:17.397Z,7.93
2022-12-28T14:20:52.149Z,7.27
2022-12-28T14:23:21.488Z,7.00
2022-12-28T14:25:51.884Z,7.37
2022-12-28T14:28:24.555Z,6.73
2022-12-28T14:31:21.471Z,6.00
2022-12-28T14:34:02.507Z,5.70
2022-12-28T14:36:32.804Z,5.77
2022-12-28T14:39:05.268Z,4.83
2022-12-28T14:41:40.678Z,5.23
2022-12-28T14:47:35.493Z,4.80
2022-12-28T14:50:05.760Z,3.80
2022-12-28T14:52:39.877Z,3.87
2022-12-28T14:55:30.150Z,2.70
2022-12-28T14:58:03.417Z,3.67
2022-12-28T15:00:25.174Z,3.90
2022-12-28T15:00:33.992Z,3.50
2022-12-28T15:03:18.413Z,4.10
2022-12-28T15:05:49.812Z,4.60
2022-12-28T15:08:19.279Z,4.93
2022-12-28T15:10:50.028Z,5.27
2022-12-28T15:13:20.529Z,4.77
2022-12-28T15:15:56.484Z,5.27
2022-12-28T15:18:25.840Z,8.90
2022-12-28T15:20:54.615Z,7.43
2022-12-28T15:23:23.163Z,8.33
2022-12-28T15:25:52.012Z,7.67
2022-12-28T15:28:22.049Z,9.50
2022-12-28T15:30:51.052Z,10.30
2022-12-28T15:33:21.785Z,10.63
2022-12-28T15:35:50.664Z,24.13
2022-12-28T15:38:19.204Z,16.03
2022-12-28T15:40:50.118Z,6.80
2022-12-28T15:43:18.933Z,6.07
2022-12-28T15:45:55.675Z,5.60
2022-12-28T15:48:24.844Z,13.20
2022-12-28T15:50:53.807Z,16.00
2022-12-28T15:53:22.269Z,15.83
2022-12-28T15:56:01.322Z,10.60
2022-12-28T15:58:30.247Z,6.93
2022-12-28T16:01:02.646Z,5.00
2022-12-28T16:03:31.455Z,3.40
2022-12-28T16:06:00.691Z,3.37
2022-12-28T16:08:29.480Z,2.80
2022-12-28T16:11:01.031Z,1.93
2022-12-28T16:13:29.719Z,1.87
2022-12-28T16:16:06.217Z,1.47
2022-12-28T16:18:35.083Z,2.90
2022-12-28T16:21:04.333Z,1.83
2022-12-28T16:23:33.549Z,1.67
2022-12-28T16:26:02.207Z,2.30
2022-12-28T16:28:31.223Z,1.30
2022-12-28T16:31:01.283Z,1.80
2022-12-28T16:33:55.149Z,1.57
2022-12-28T16:36:25.021Z,2.30
2022-12-28T16:38:54.648Z,2.00
2022-12-28T16:41:23.694Z,1.20
2022-12-28T16:43:52.615Z,1.30
2022-12-28T16:46:22.811Z,1.10
2022-12-28T16:48:51.447Z,0.90
2022-12-28T16:51:20.350Z,8.90
2022-12-28T16:53:49.133Z,2.80
2022-12-28T16:56:17.829Z,1.63
2022-12-28T16:58:49.119Z,2.07
2022-12-28T17:01:18.698Z,1.77
2022-12-28T17:03:48.860Z,2.10
2022-12-28T17:06:17.754Z,2.10
2022-12-28T17:08:46.421Z,1.77
2022-12-28T17:11:17.331Z,1.60
2022-12-28T17:13:46.556Z,1.87
2022-12-28T17:16:15.430Z,2.03
2022-12-28T17:18:44.238Z,2.13
2022-12-28T17:21:14.321Z,1.70
2022-12-28T17:23:43.211Z,2.43
2022-12-28T17:26:12.304Z,4.53
2022-12-28T17:28:41.099Z,18.30
2022-12-28T17:31:12.135Z,10.57
2022-12-28T17:33:40.653Z,11.33
2022-12-28T17:36:09.979Z,7.17
2022-12-28T17:38:39.684Z,4.37
2022-12-28T17:41:10.132Z,3.13
2022-12-28T17:43:38.572Z,2.80
2022-12-28T17:46:07.594Z,1.83
2022-12-28T17:48:36.396Z,1.10
2022-12-28T17:51:11.115Z,1.63
2022-12-28T17:53:41.913Z,3.57
2022-12-28T17:56:12.471Z,3.67
2022-12-28T17:58:41.339Z,2.70
2022-12-28T18:01:10.864Z,2.47
2022-12-28T18:03:45.825Z,3.13
2022-12-28T18:06:15.149Z,3.00
2022-12-28T18:08:45.576Z,3.37
2022-12-28T18:11:14.329Z,3.30
2022-12-28T18:13:43.903Z,4.60
2022-12-28T18:16:15.856Z,3.47
2022-12-28T18:18:44.826Z,4.70
2022-12-28T18:21:21.040Z,3.50
2022-12-28T18:24:02.429Z,6.70
2022-12-28T18:26:30.965Z,6.57
2022-12-28T18:28:59.467Z,3.80
2022-12-28T18:32:17.860Z,2.77
2022-12-28T18:34:46.841Z,1.80
2022-12-28T18:37:16.010Z,3.20
2022-12-28T18:39:46.610Z,2.00
2022-12-28T18:42:18.588Z,1.30
2022-12-28T18:47:49.222Z,2.10
2022-12-28T18:50:18.590Z,1.73
2022-12-28T18:52:48.649Z,1.90
2022-12-28T18:55:21.698Z,3.37
2022-12-28T18:57:50.451Z,2.20
2022-12-28T19:00:19.950Z,2.90
2022-12-28T19:02:52.981Z,3.77
2022-12-28T19:05:21.921Z,2.90
2022-12-28T19:07:53.665Z,2.40
2022-12-28T19:10:24.553Z,1.10
2022-12-28T19:12:53.753Z,1.87
2022-12-28T19:15:22.526Z,4.60
2022-12-28T19:17:51.511Z,3.90
2022-12-28T19:20:22.733Z,2.77
2022-12-28T19:22:51.614Z,2.47
2022-12-28T19:25:20.477Z,1.40
2022-12-28T19:27:50.986Z,1.53
2022-12-28T19:30:20.191Z,1.70
2022-12-28T19:32:49.197Z,3.40
2022-12-28T19:35:18.182Z,9.37
2022-12-28T19:37:47.243Z,9.60
2022-12-28T19:40:16.288Z,7.60
2022-12-28T19:42:45.400Z,9.50
2022-12-28T19:45:19.404Z,8.40
2022-12-28T19:47:48.135Z,8.87
2022-12-28T19:50:17.604Z,11.00
2022-12-28T19:52:47.038Z,14.13
2022-12-28T19:55:15.865Z,19.50
2022-12-28T19:57:45.045Z,21.17
2022-12-28T20:00:16.854Z,14.13
2022-12-28T20:02:46.102Z,12.87
2022-12-28T20:05:14.916Z,10.20
2022-12-28T20:07:43.960Z,9.50
2022-12-28T20:10:12.917Z,7.40
2022-12-28T20:12:41.725Z,7.00
2022-12-28T20:16:03.072Z,3.63
2022-12-28T20:18:33.162Z,3.87
2022-12-28T20:21:20.404Z,2.80
2022-12-28T20:23:49.550Z,2.53
2022-12-28T20:26:18.845Z,1.90
2022-12-28T20:28:47.675Z,2.60
2022-12-28T20:31:16.850Z,1.60
2022-12-28T20:33:47.399Z,2.20
2022-12-28T20:36:17.646Z,2.53
2022-12-28T20:38:46.920Z,1.70
2022-12-28T20:41:31.440Z,4.30
2022-12-28T20:44:00.684Z,1.57
2022-12-28T20:46:29.384Z,1.40
2022-12-28T20:48:59.999Z,1.60
2022-12-28T20:51:29.231Z,1.90
2022-12-28T20:54:00.329Z,2.27
2022-12-28T20:56:28.945Z,2.20
2022-12-28T20:59:00.439Z,2.77
2022-12-28T21:01:29.188Z,3.20
2022-12-28T21:03:59.399Z,2.30
2022-12-28T21:06:27.840Z,2.40
2022-12-28T21:08:56.823Z,1.70
2022-12-28T21:11:25.435Z,2.30
2022-12-28T21:13:54.328Z,3.40
2022-12-28T21:16:23.599Z,4.30
2022-12-28T21:18:52.492Z,4.90
2022-12-28T21:21:24.337Z,5.67
2022-12-28T21:23:53.984Z,5.73
2022-12-28T21:26:23.420Z,6.20
2022-12-28T21:28:52.053Z,11.50
2022-12-28T21:31:20.922Z,11.63
2022-12-28T21:33:49.598Z,11.27
2022-12-28T21:36:19.673Z,9.57
2022-12-28T21:38:50.741Z,9.77
2022-12-28T21:41:41.765Z,8.60
2022-12-28T21:44:14.504Z,7.37
2022-12-28T21:46:43.620Z,7.13
2022-12-28T21:49:12.401Z,7.30
2022-12-28T21:51:41.216Z,6.30
2022-12-28T21:54:13.501Z,6.67
2022-12-28T21:56:43.192Z,5.20
2022-12-28T21:59:16.150Z,5.50
2022-12-28T22:02:02.233Z,4.87
2022-12-28T22:04:48.733Z,5.60
2022-12-28T22:07:18.783Z,5.93
2022-12-28T22:10:06.114Z,4.70
2022-12-28T22:12:36.103Z,4.73
2022-12-28T22:15:21.551Z,4.90
2022-12-28T22:17:50.256Z,3.20
2022-12-28T22:20:18.781Z,3.47
2022-12-28T22:22:47.333Z,2.30
2022-12-28T22:25:17.637Z,1.73
2022-12-28T22:27:46.368Z,1.90
2022-12-28T22:30:15.606Z,1.80
2022-12-28T22:32:46.324Z,1.73
2022-12-28T22:35:15.748Z,1.20
2022-12-28T22:37:46.756Z,1.17
2022-12-28T22:40:17.256Z,1.10
2022-12-28T22:42:47.377Z,1.03
2022-12-28T22:45:18.301Z,1.00
2022-12-28T22:47:49.886Z,1.33
2022-12-28T22:50:20.050Z,1.23
2022-12-28T22:55:33.416Z,1.20
2022-12-28T22:58:02.197Z,1.00
2022-12-28T23:00:30.939Z,1.23
2022-12-28T23:02:59.747Z,0.93
2022-12-28T23:05:28.221Z,1.30
2022-12-28T23:07:57.444Z,1.13
2022-12-28T23:10:31.111Z,1.50
2022-12-28T23:13:01.058Z,1.43
2022-12-28T23:15:28.983Z,1.50
2022-12-28T23:18:22.817Z,1.27
2022-12-28T23:21:14.187Z,1.30
2022-12-28T23:24:02.912Z,0.90
2022-12-28T23:26:49.208Z,1.10
2022-12-28T23:29:19.335Z,1.10
2022-12-28T23:31:48.408Z,1.30
2022-12-28T23:34:50.296Z,1.70
2022-12-28T23:37:19.202Z,3.07
2022-12-28T23:39:47.999Z,2.30
2022-12-28T23:42:16.529Z,1.83
2022-12-28T23:44:48.294Z,1.60
2022-12-28T23:47:17.878Z,1.40
2022-12-28T23:49:46.883Z,1.17
2022-12-28T23:52:17.673Z,1.13
2022-12-28T23:54:49.683Z,1.10
2022-12-28T23:57:18.260Z,0.90
2022-12-28T23:59:48.200Z,2.10
